createdAt,value
2022-10-17T00:00:22.803Z,83.07
2022-10-17T00:02:50.647Z,82.93
2022-10-17T00:05:18.524Z,82.91
2022-10-17T00:07:46.265Z,82.76
2022-10-17T00:10:14.318Z,82.36
2022-10-17T00:12:43.416Z,82.25
2022-10-17T00:15:16.146Z,82.16
2022-10-17T00:17:44.020Z,82.20
2022-10-17T00:20:12.969Z,81.80
2022-10-17T00:22:40.726Z,81.93
2022-10-17T00:25:09.296Z,81.71
2022-10-17T00:27:37.556Z,81.55
2022-10-17T00:30:09.055Z,81.48
2022-10-17T00:32:36.833Z,81.21
2022-10-17T00:35:05.741Z,81.33
2022-10-17T00:37:33.716Z,81.44
2022-10-17T00:40:02.077Z,81.47
2022-10-17T00:42:30.399Z,81.55
2022-10-17T00:45:22.744Z,81.72
2022-10-17T00:47:56.033Z,81.26
2022-10-17T00:50:25.208Z,81.09
2022-10-17T00:52:53.051Z,81.22
2022-10-17T00:55:26.273Z,80.77
2022-10-17T00:57:54.281Z,81.09
2022-10-17T01:00:24.868Z,81.12
2022-10-17T01:02:53.138Z,81.13
2022-10-17T01:05:22.978Z,80.92
2022-10-17T01:07:52.829Z,80.92
2022-10-17T01:13:01.663Z,81.35
2022-10-17T01:15:41.760Z,81.20
2022-10-17T01:18:20.349Z,80.97
2022-10-17T01:21:31.423Z,80.71
2022-10-17T01:24:34.411Z,80.75
2022-10-17T01:27:47.531Z,80.76
2022-10-17T01:30:30.368Z,80.81
2022-10-17T01:33:06.422Z,80.96
2022-10-17T01:35:40.712Z,81.22
2022-10-17T01:38:12.103Z,81.22
2022-10-17T01:40:45.072Z,81.45
2022-10-17T01:43:17.451Z,80.88
2022-10-17T01:45:52.364Z,80.53
2022-10-17T01:48:25.458Z,80.13
2022-10-17T01:50:57.829Z,80.06
2022-10-17T01:53:32.616Z,79.86
2022-10-17T01:56:03.102Z,79.75
2022-10-17T01:58:34.991Z,79.50
2022-10-17T02:01:06.124Z,79.28
2022-10-17T02:03:36.263Z,79.34
2022-10-17T02:06:07.130Z,79.15
2022-10-17T02:08:41.905Z,78.96
2022-10-17T02:11:15.259Z,78.95
2022-10-17T02:13:56.924Z,78.69
2022-10-17T02:16:36.769Z,78.94
2022-10-17T02:19:36.634Z,79.20
2022-10-17T02:22:16.864Z,79.60
2022-10-17T02:24:52.921Z,79.82
2022-10-17T02:27:29.260Z,80.13
2022-10-17T02:30:03.407Z,80.29
2022-10-17T02:32:36.382Z,80.36
2022-10-17T02:35:10.765Z,80.52
2022-10-17T02:37:41.200Z,80.71
2022-10-17T02:40:11.599Z,80.64
2022-10-17T02:42:41.786Z,80.83
2022-10-17T02:45:11.059Z,80.94
2022-10-17T02:47:47.114Z,80.85
2022-10-17T02:50:16.537Z,80.84
2022-10-17T02:52:51.964Z,80.80
2022-10-17T02:55:22.916Z,80.72
2022-10-17T02:57:54.604Z,80.64
2022-10-17T03:00:26.014Z,80.50
2022-10-17T03:02:54.968Z,80.55
2022-10-17T03:05:26.099Z,80.53
2022-10-17T03:07:54.749Z,80.47
2022-10-17T03:10:23.165Z,80.23
2022-10-17T03:12:50.907Z,80.26
2022-10-17T03:15:20.437Z,80.27
2022-10-17T03:17:48.235Z,80.13
2022-10-17T03:20:16.018Z,80.14
2022-10-17T03:22:45.099Z,80.28
2022-10-17T03:25:12.830Z,80.18
2022-10-17T03:27:40.584Z,80.19
2022-10-17T03:30:10.900Z,80.25
2022-10-17T03:32:39.785Z,80.32
2022-10-17T03:35:10.193Z,80.39
2022-10-17T03:37:42.004Z,80.10
2022-10-17T03:40:12.121Z,80.26
2022-10-17T03:42:40.448Z,80.23
2022-10-17T03:45:09.347Z,80.25
2022-10-17T03:47:37.330Z,80.37
2022-10-17T03:50:05.912Z,80.40
2022-10-17T03:52:36.435Z,80.28
2022-10-17T03:55:05.377Z,80.25
2022-10-17T03:57:35.667Z,80.60
2022-10-17T04:00:05.213Z,80.49
2022-10-17T04:02:42.125Z,80.35
2022-10-17T04:05:15.024Z,80.47
2022-10-17T04:07:42.799Z,80.67
2022-10-17T04:10:13.051Z,80.49
2022-10-17T04:12:42.179Z,80.55
2022-10-17T04:15:13.244Z,80.45
2022-10-17T04:17:41.264Z,80.42
2022-10-17T04:20:10.977Z,80.34
2022-10-17T04:22:38.822Z,80.28
2022-10-17T04:25:07.926Z,80.13
2022-10-17T04:27:42.844Z,80.23
2022-10-17T04:30:10.899Z,80.13
2022-10-17T04:32:39.421Z,79.99
2022-10-17T04:35:14.363Z,79.96
2022-10-17T04:37:47.025Z,79.70
2022-10-17T04:40:19.021Z,79.44
2022-10-17T04:42:49.221Z,79.50
2022-10-17T04:45:21.104Z,79.49
2022-10-17T04:47:52.520Z,79.20
2022-10-17T04:50:20.420Z,79.21
2022-10-17T04:53:07.656Z,78.99
2022-10-17T04:55:39.362Z,79.41
2022-10-17T04:58:08.569Z,79.44
2022-10-17T05:00:37.003Z,79.19
2022-10-17T05:03:13.295Z,79.00
2022-10-17T05:05:42.330Z,78.94
2022-10-17T05:08:12.587Z,79.06
2022-10-17T05:10:41.516Z,79.27
2022-10-17T05:13:11.548Z,79.00
2022-10-17T05:15:39.538Z,78.90
2022-10-17T05:18:08.109Z,79.01
2022-10-17T05:20:36.999Z,79.07
2022-10-17T05:23:04.920Z,78.43
2022-10-17T05:25:36.992Z,78.79
2022-10-17T05:28:04.755Z,78.72
2022-10-17T05:30:37.484Z,78.60
2022-10-17T05:33:07.387Z,78.57
2022-10-17T05:35:35.131Z,78.59
2022-10-17T05:38:03.035Z,78.65
2022-10-17T05:40:33.332Z,78.58
2022-10-17T05:43:01.139Z,78.70
2022-10-17T05:45:28.960Z,78.50
2022-10-17T05:47:58.912Z,78.57
2022-10-17T05:50:27.240Z,78.66
2022-10-17T05:53:06.181Z,78.73
2022-10-17T05:55:40.042Z,78.53
2022-10-17T05:58:09.771Z,78.59
2022-10-17T06:03:13.687Z,78.31
2022-10-17T06:05:41.503Z,78.37
2022-10-17T06:08:09.325Z,78.25
2022-10-17T06:10:37.951Z,78.22
2022-10-17T06:13:05.955Z,78.12
2022-10-17T06:15:34.212Z,78.19
2022-10-17T06:18:06.642Z,78.47
2022-10-17T06:20:36.011Z,78.02
2022-10-17T06:23:04.478Z,78.02
2022-10-17T06:25:55.033Z,78.04
2022-10-17T06:28:22.839Z,78.04
2022-10-17T06:30:50.718Z,77.73
2022-10-17T06:33:18.486Z,77.50
2022-10-17T06:35:52.499Z,77.56
2022-10-17T06:38:21.044Z,77.30
2022-10-17T06:40:50.969Z,76.93
2022-10-17T06:43:23.149Z,76.32
2022-10-17T06:46:04.263Z,74.76
2022-10-17T06:48:39.236Z,74.05
2022-10-17T06:51:31.508Z,74.18
2022-10-17T06:54:00.047Z,74.05
2022-10-17T06:56:39.639Z,74.32
2022-10-17T06:59:26.469Z,73.83
2022-10-17T07:02:14.531Z,73.64
2022-10-17T07:04:43.409Z,73.13
2022-10-17T07:07:14.803Z,73.02
2022-10-17T07:09:42.500Z,72.73
2022-10-17T07:12:13.118Z,72.49
2022-10-17T07:14:47.300Z,71.95
2022-10-17T07:17:15.169Z,71.56
2022-10-17T07:19:43.680Z,71.52
2022-10-17T07:22:12.391Z,70.73
2022-10-17T07:24:44.788Z,70.06
2022-10-17T07:27:29.885Z,69.43
2022-10-17T07:29:59.067Z,68.46
2022-10-17T07:32:38.577Z,67.69
2022-10-17T07:35:07.710Z,67.14
2022-10-17T07:37:36.285Z,67.61
2022-10-17T07:40:06.587Z,67.60
2022-10-17T07:42:37.131Z,67.10
2022-10-17T07:45:05.882Z,66.62
2022-10-17T07:47:35.721Z,66.14
2022-10-17T07:50:05.273Z,66.10
2022-10-17T07:52:33.128Z,65.91
2022-10-17T07:55:01.016Z,66.13
2022-10-17T07:57:30.193Z,66.02
2022-10-17T07:59:57.960Z,66.78
2022-10-17T08:02:27.621Z,66.01
2022-10-17T08:04:55.710Z,66.57
2022-10-17T08:07:28.403Z,67.25
2022-10-17T08:09:57.508Z,67.91
2022-10-17T08:12:25.968Z,67.94
2022-10-17T08:14:55.116Z,67.17
2022-10-17T08:17:22.878Z,66.62
2022-10-17T08:19:50.666Z,66.61
2022-10-17T08:22:18.394Z,67.64
2022-10-17T08:24:46.366Z,66.99
2022-10-17T08:27:14.330Z,66.50
2022-10-17T08:29:42.281Z,65.27
2022-10-17T08:32:11.352Z,64.72
2022-10-17T08:34:38.964Z,65.31
2022-10-17T08:37:06.780Z,64.96
2022-10-17T08:39:34.577Z,64.91
2022-10-17T08:42:15.277Z,63.46
2022-10-17T08:44:53.707Z,61.47
2022-10-17T08:47:28.839Z,59.54
2022-10-17T08:50:00.755Z,61.39
2022-10-17T08:52:37.579Z,62.89
2022-10-17T08:55:13.534Z,64.72
2022-10-17T08:57:41.327Z,66.19
2022-10-17T09:00:17.990Z,66.70
2022-10-17T09:02:59.394Z,67.51
2022-10-17T09:05:42.548Z,67.90
2022-10-17T09:08:21.734Z,67.99
2022-10-17T09:10:57.908Z,68.38
2022-10-17T09:13:34.045Z,68.80
2022-10-17T09:16:13.904Z,68.95
2022-10-17T09:18:47.117Z,69.08
2022-10-17T09:21:20.729Z,69.32
2022-10-17T09:23:59.437Z,69.17
2022-10-17T09:26:37.535Z,69.68
2022-10-17T09:29:16.850Z,69.83
2022-10-17T09:31:48.268Z,70.04
2022-10-17T09:34:17.738Z,70.14
2022-10-17T09:36:45.512Z,70.20
2022-10-17T09:39:15.587Z,69.72
2022-10-17T09:41:47.141Z,70.02
2022-10-17T09:44:36.122Z,69.86
2022-10-17T09:47:19.395Z,70.02
2022-10-17T09:49:50.273Z,69.76
2022-10-17T09:52:19.986Z,70.06
2022-10-17T09:54:50.185Z,70.32
2022-10-17T09:57:19.829Z,70.56
2022-10-17T09:59:49.492Z,70.77
2022-10-17T10:02:21.325Z,70.76
2022-10-17T10:05:17.164Z,70.89
2022-10-17T10:08:00.333Z,71.00
2022-10-17T10:10:30.126Z,71.24
2022-10-17T10:13:07.268Z,71.22
2022-10-17T10:15:37.765Z,70.99
2022-10-17T10:18:33.179Z,71.41
2022-10-17T10:21:08.439Z,71.14
2022-10-17T10:23:40.009Z,71.29
2022-10-17T10:26:21.503Z,71.52
2022-10-17T10:28:56.564Z,71.42
2022-10-17T10:31:31.343Z,71.38
2022-10-17T10:34:02.186Z,71.27
2022-10-17T10:36:47.895Z,71.20
2022-10-17T10:39:28.886Z,71.04
2022-10-17T10:41:56.732Z,71.01
2022-10-17T10:44:28.239Z,71.33
2022-10-17T10:47:20.514Z,71.32
2022-10-17T10:49:48.776Z,70.93
2022-10-17T10:52:31.186Z,70.91
2022-10-17T10:55:08.058Z,70.68
2022-10-17T10:57:38.723Z,70.67
2022-10-17T11:00:13.938Z,70.24
2022-10-17T11:02:46.973Z,69.86
2022-10-17T11:05:21.757Z,69.89
2022-10-17T11:07:59.506Z,69.73
2022-10-17T11:10:34.633Z,69.44
2022-10-17T11:13:07.510Z,69.21
2022-10-17T11:15:40.430Z,69.31
2022-10-17T11:18:13.191Z,69.08
2022-10-17T11:20:51.599Z,69.61
2022-10-17T11:23:28.914Z,69.69
2022-10-17T11:25:59.977Z,69.70
2022-10-17T11:28:27.781Z,70.05
2022-10-17T11:30:58.892Z,70.30
2022-10-17T11:33:31.558Z,70.50
2022-10-17T11:36:05.311Z,70.43
2022-10-17T11:38:42.948Z,70.19
2022-10-17T11:41:15.110Z,69.73
2022-10-17T11:43:49.357Z,69.68
2022-10-17T11:46:21.705Z,70.08
2022-10-17T11:48:59.637Z,69.84
2022-10-17T11:54:20.260Z,69.80
2022-10-17T11:56:54.865Z,70.04
2022-10-17T12:00:03.419Z,70.32
2022-10-17T12:02:40.055Z,70.55
2022-10-17T12:05:20.377Z,70.75
2022-10-17T12:07:53.593Z,70.81
2022-10-17T12:10:32.516Z,70.94
2022-10-17T12:13:52.801Z,70.98
2022-10-17T12:16:44.798Z,71.07
2022-10-17T12:19:25.438Z,71.06
2022-10-17T12:22:01.334Z,71.17
2022-10-17T12:24:38.130Z,71.38
2022-10-17T12:27:36.039Z,71.45
2022-10-17T12:30:16.004Z,71.55
2022-10-17T12:33:07.408Z,71.46
2022-10-17T12:35:38.306Z,71.47
2022-10-17T12:38:25.280Z,71.59
2022-10-17T12:40:57.938Z,71.29
2022-10-17T12:43:45.454Z,71.53
2022-10-17T12:46:34.745Z,71.83
2022-10-17T12:49:20.622Z,71.97
2022-10-17T12:52:21.620Z,72.14
2022-10-17T12:55:07.164Z,72.16
2022-10-17T12:57:45.050Z,72.11
2022-10-17T13:00:19.100Z,72.04
2022-10-17T13:02:49.118Z,72.57
2022-10-17T13:05:23.190Z,72.43
2022-10-17T13:07:52.897Z,72.69
2022-10-17T13:10:23.775Z,72.84
2022-10-17T13:12:53.655Z,72.90
2022-10-17T13:15:22.190Z,72.68
2022-10-17T13:17:59.364Z,72.92
2022-10-17T13:20:31.605Z,73.06
2022-10-17T13:23:00.290Z,72.94
2022-10-17T13:25:29.038Z,72.85
2022-10-17T13:28:13.534Z,72.95
2022-10-17T13:30:46.979Z,73.03
2022-10-17T13:33:34.320Z,73.02
2022-10-17T13:36:04.295Z,72.97
2022-10-17T13:38:36.633Z,72.75
2022-10-17T13:41:34.113Z,73.18
2022-10-17T13:44:04.049Z,73.29
2022-10-17T13:46:39.025Z,73.16
2022-10-17T13:49:18.865Z,73.27
2022-10-17T13:51:48.950Z,73.50
2022-10-17T13:54:34.025Z,73.53
2022-10-17T13:57:03.318Z,73.81
2022-10-17T13:59:35.742Z,74.03
2022-10-17T14:02:03.602Z,74.22
2022-10-17T14:04:50.296Z,74.49
2022-10-17T14:07:27.882Z,74.77
2022-10-17T14:09:57.282Z,74.60
2022-10-17T14:12:25.119Z,74.85
2022-10-17T14:15:11.242Z,75.13
2022-10-17T14:17:40.892Z,75.55
2022-10-17T14:23:22.820Z,75.75
2022-10-17T14:26:09.608Z,75.58
2022-10-17T14:28:37.682Z,76.09
2022-10-17T14:31:24.896Z,76.35
2022-10-17T14:33:54.387Z,76.99
2022-10-17T14:36:32.810Z,76.95
2022-10-17T14:39:01.924Z,77.14
2022-10-17T14:41:48.318Z,77.42
2022-10-17T14:44:23.301Z,77.53
2022-10-17T14:46:55.836Z,78.22
2022-10-17T14:49:29.168Z,79.11
2022-10-17T14:52:32.482Z,79.50
2022-10-17T14:55:13.190Z,79.78
2022-10-17T14:57:44.134Z,80.00
2022-10-17T15:00:15.996Z,80.77
2022-10-17T15:02:44.578Z,80.73
2022-10-17T15:05:13.649Z,80.96
2022-10-17T15:07:43.706Z,81.63
2022-10-17T15:10:26.090Z,81.80
2022-10-17T15:12:59.243Z,82.19
2022-10-17T15:15:32.930Z,82.77
2022-10-17T15:18:00.773Z,83.34
2022-10-17T15:20:30.492Z,84.18
2022-10-17T15:23:01.221Z,84.60
2022-10-17T15:25:30.463Z,85.46
2022-10-17T15:27:58.998Z,85.93
2022-10-17T15:30:28.539Z,86.68
2022-10-17T15:32:57.043Z,87.16
2022-10-17T15:35:25.286Z,87.44
2022-10-17T15:37:53.211Z,87.64
2022-10-17T15:40:25.154Z,87.76
2022-10-17T15:42:53.138Z,88.14
2022-10-17T15:45:22.569Z,88.43
2022-10-17T15:47:52.782Z,88.65
2022-10-17T15:50:21.735Z,88.97
2022-10-17T15:52:50.940Z,89.24
2022-10-17T15:55:19.479Z,89.20
2022-10-17T15:57:49.863Z,89.66
2022-10-17T16:00:20.340Z,89.54
2022-10-17T16:02:49.281Z,89.73
2022-10-17T16:05:19.691Z,89.79
2022-10-17T16:07:48.353Z,89.89
2022-10-17T16:10:17.181Z,88.55
2022-10-17T16:12:45.212Z,87.85
2022-10-17T16:15:16.566Z,87.85
2022-10-17T16:17:44.817Z,88.04
2022-10-17T16:20:13.659Z,87.86
2022-10-17T16:22:42.777Z,88.30
2022-10-17T16:25:19.446Z,88.12
2022-10-17T16:27:48.172Z,88.64
2022-10-17T16:30:17.957Z,88.38
2022-10-17T16:32:45.833Z,88.36
2022-10-17T16:35:17.842Z,88.46
2022-10-17T16:37:45.659Z,88.55
2022-10-17T16:40:13.539Z,88.33
2022-10-17T16:42:41.390Z,88.04
2022-10-17T16:45:09.809Z,88.42
2022-10-17T16:47:38.926Z,88.00
2022-10-17T16:50:06.846Z,88.43
2022-10-17T16:52:34.628Z,88.67
2022-10-17T16:55:02.603Z,88.40
2022-10-17T16:57:30.369Z,88.75
2022-10-17T16:59:58.126Z,88.80
2022-10-17T17:02:25.902Z,88.16
2022-10-17T17:04:54.995Z,88.09
2022-10-17T17:07:24.348Z,87.96
2022-10-17T17:09:53.641Z,87.84
2022-10-17T17:12:21.456Z,88.23
2022-10-17T17:14:49.270Z,88.61
2022-10-17T17:17:30.174Z,88.73
2022-10-17T17:20:07.246Z,88.68
2022-10-17T17:22:35.904Z,88.34
2022-10-17T17:25:03.765Z,88.09
2022-10-17T17:27:31.839Z,88.39
2022-10-17T17:29:59.894Z,88.09
2022-10-17T17:32:27.691Z,87.44
2022-10-17T17:34:55.513Z,87.76
2022-10-17T17:37:24.655Z,87.73
2022-10-17T17:39:52.315Z,88.18
2022-10-17T17:42:20.697Z,88.57
2022-10-17T17:44:49.548Z,88.50
2022-10-17T17:47:17.396Z,88.40
2022-10-17T17:49:45.225Z,88.39
2022-10-17T17:52:13.006Z,88.58
2022-10-17T17:54:42.155Z,88.43
2022-10-17T17:57:09.782Z,88.64
2022-10-17T17:59:39.047Z,88.12
2022-10-17T18:02:06.939Z,87.99
2022-10-17T18:04:34.761Z,87.97
2022-10-17T18:07:02.587Z,88.29
2022-10-17T18:09:30.370Z,88.63
2022-10-17T18:11:59.526Z,88.78
2022-10-17T18:14:27.246Z,88.89
2022-10-17T18:16:55.043Z,88.60
2022-10-17T18:19:23.822Z,89.06
2022-10-17T18:21:51.650Z,89.12
2022-10-17T18:24:19.817Z,89.24
2022-10-17T18:26:47.617Z,89.23
2022-10-17T18:29:17.069Z,89.42
2022-10-17T18:31:44.862Z,89.68
2022-10-17T18:34:12.667Z,89.90
2022-10-17T18:36:40.487Z,90.07
2022-10-17T18:39:08.288Z,90.30
2022-10-17T18:41:36.357Z,90.25
2022-10-17T18:44:04.352Z,90.04
2022-10-17T18:46:40.364Z,90.26
2022-10-17T18:49:09.152Z,90.09
2022-10-17T18:51:37.261Z,90.16
2022-10-17T18:54:05.185Z,90.11
2022-10-17T18:56:33.027Z,89.90
2022-10-17T18:59:00.868Z,90.18
2022-10-17T19:01:28.879Z,90.40
2022-10-17T19:03:59.680Z,90.21
2022-10-17T19:06:31.599Z,90.28
2022-10-17T19:08:59.701Z,90.33
2022-10-17T19:11:28.896Z,90.55
2022-10-17T19:13:57.448Z,90.55
2022-10-17T19:16:27.687Z,90.29
2022-10-17T19:18:57.426Z,90.30
2022-10-17T19:21:26.961Z,90.27
2022-10-17T19:23:57.051Z,90.75
2022-10-17T19:26:27.605Z,91.12
2022-10-17T19:28:55.541Z,90.78
2022-10-17T19:31:27.092Z,90.86
2022-10-17T19:33:56.523Z,90.98
2022-10-17T19:36:28.820Z,90.76
2022-10-17T19:39:02.503Z,91.00
2022-10-17T19:41:30.424Z,91.07
2022-10-17T19:43:58.524Z,91.20
2022-10-17T19:46:27.937Z,91.15
2022-10-17T19:48:56.758Z,91.37
2022-10-17T19:51:26.262Z,91.38
2022-10-17T19:53:55.787Z,91.61
2022-10-17T19:56:26.041Z,91.69
2022-10-17T19:58:55.534Z,91.41
2022-10-17T20:01:25.041Z,91.68
2022-10-17T20:03:53.387Z,91.91
2022-10-17T20:06:21.909Z,92.03
2022-10-17T20:08:50.413Z,92.24
2022-10-17T20:11:20.314Z,92.37
2022-10-17T20:13:50.128Z,92.50
2022-10-17T20:16:21.205Z,92.62
2022-10-17T20:18:49.598Z,92.59
2022-10-17T20:21:19.261Z,92.65
2022-10-17T20:23:47.974Z,92.67
2022-10-17T20:29:10.872Z,92.77
2022-10-17T20:31:39.509Z,92.90
2022-10-17T20:34:07.369Z,92.86
2022-10-17T20:36:37.380Z,92.62
2022-10-17T20:39:07.182Z,92.56
2022-10-17T20:41:35.729Z,92.60
2022-10-17T20:44:04.077Z,92.41
2022-10-17T20:46:37.857Z,92.56
2022-10-17T20:49:12.167Z,92.41
2022-10-17T20:51:40.115Z,92.51
2022-10-17T20:54:08.002Z,92.99
2022-10-17T20:56:36.144Z,92.97
2022-10-17T20:59:05.832Z,93.36
2022-10-17T21:01:36.376Z,93.15
2022-10-17T21:06:53.507Z,93.40
2022-10-17T21:09:21.963Z,93.19
2022-10-17T21:11:51.419Z,93.21
2022-10-17T21:14:19.476Z,93.56
2022-10-17T21:16:49.188Z,93.52
2022-10-17T21:19:17.613Z,93.51
2022-10-17T21:21:47.218Z,93.48
2022-10-17T21:24:17.806Z,93.62
2022-10-17T21:26:46.704Z,93.36
2022-10-17T21:29:15.218Z,93.24
2022-10-17T21:31:44.947Z,93.13
2022-10-17T21:34:15.624Z,92.86
2022-10-17T21:36:44.128Z,93.11
2022-10-17T21:39:12.898Z,93.23
2022-10-17T21:41:41.087Z,93.22
2022-10-17T21:44:14.023Z,92.97
2022-10-17T21:46:42.135Z,92.67
2022-10-17T21:49:11.828Z,92.82
2022-10-17T21:51:41.367Z,92.70
2022-10-17T21:54:09.701Z,92.76
2022-10-17T21:56:37.723Z,92.86
2022-10-17T21:59:06.077Z,92.94
2022-10-17T22:01:35.800Z,93.02
2022-10-17T22:04:06.297Z,93.40
2022-10-17T22:06:40.326Z,93.30
2022-10-17T22:09:13.139Z,93.05
2022-10-17T22:11:41.515Z,93.13
2022-10-17T22:14:15.345Z,93.25
2022-10-17T22:16:44.898Z,93.75
2022-10-17T22:19:14.397Z,93.20
2022-10-17T22:21:42.367Z,92.73
2022-10-17T22:24:13.284Z,93.19
2022-10-17T22:26:41.780Z,92.88
2022-10-17T22:29:10.420Z,92.45
2022-10-17T22:31:39.174Z,92.52
2022-10-17T22:34:07.935Z,92.73
2022-10-17T22:36:36.239Z,91.81
2022-10-17T22:39:04.690Z,91.89
2022-10-17T22:41:34.105Z,91.48
2022-10-17T22:44:02.394Z,90.65
2022-10-17T22:46:30.378Z,90.12
2022-10-17T22:48:58.153Z,90.44
2022-10-17T22:51:26.163Z,90.19
2022-10-17T22:53:53.908Z,89.66
2022-10-17T22:56:22.878Z,89.13
2022-10-17T22:58:52.229Z,90.20
2022-10-17T23:01:21.998Z,89.58
2022-10-17T23:03:50.029Z,90.40
2022-10-17T23:06:17.943Z,90.49
2022-10-17T23:08:46.268Z,90.75
2022-10-17T23:11:14.431Z,90.71
2022-10-17T23:13:42.422Z,90.91
2022-10-17T23:16:11.644Z,91.18
2022-10-17T23:18:39.401Z,91.83
2022-10-17T23:21:07.992Z,91.56
2022-10-17T23:23:35.961Z,90.79
2022-10-17T23:26:08.017Z,89.43
2022-10-17T23:28:36.165Z,88.45
2022-10-17T23:31:17.556Z,87.41
2022-10-17T23:33:46.674Z,85.65
2022-10-17T23:36:14.922Z,87.54
2022-10-17T23:38:43.950Z,88.07
2022-10-17T23:41:12.143Z,88.54
2022-10-17T23:43:40.035Z,88.85
2022-10-17T23:46:08.165Z,88.49
2022-10-17T23:48:38.633Z,88.77
2022-10-17T23:51:07.238Z,87.49
2022-10-17T23:53:34.997Z,86.01
2022-10-17T23:56:02.818Z,85.56
2022-10-17T23:58:30.783Z,86.16
